Tiempo atmosférico en la estación meteorológica de Pontevedra, Pontevedra (108 m.)



Fecha
DESCASC
Temp. máxima en grados centígrados (hora)
DESCASC
Temp. mínima en grados centígrados (hora)
DESCASC
Temp. media en grados centígrados
DESCASC
Racha de viento máxima en m/sg (hora)
DESCASC
Velocidad máxima media en intervalos de 10 minutos(hora)
DESCASC
Precipitaciones diarias en mm
DESCASC
Precipitaciones de 00:00 a 06:00 en mm
DESCASC
Precipitaciones de 06:00 a 12:00 en mm
DESCASC
Precipitaciones de 12:00 a 18:00 en mm
DESCASC
Precipitaciones de 18:00 a 24:00 en mm
DESCASC
05-04-2020 16.8 (00:00) 12.8 (23:59) 14.8 12.78 (02:20) 7.22 (15:30) 30.2 0 6.8 23.4 0
04-04-2020 22.4 (14:20) 9.2 (07:10) 15.8 12.78 (15:30) 5.56 (15:30) 0 0 0 0 0
03-04-2020 19.6 (14:50) 5.2 (08:00) 12.4 6.67 (15:50) 3.89 (15:50) 0 0 0 0 0
02-04-2020 18.8 (17:00) 9.5 (00:00) 14.1 9.72 (14:20) 4.72 (17:30) 0 0 0 0 0
01-04-2020 16.6 (18:10) 4.9 (00:00) 10.8 6.67 (15:50) 3.89 (15:40) 2.8 2.8 0 0 0
31-03-2020 10.1 (17:50) 3.1 (00:00) 6.6 9.72 (01:40) 3.61 (01:10) 1 0 0 0.8 0.2
30-03-2020 13.8 (17:10) 5.5 (00:00) 9.7 15.83 (16:20) 6.39 (14:50) 0 0 0 0 0
29-03-2020 21 (16:50) 5.6 (00:00) 13.3 7.78 (23:00) 3.61 (16:00) 0 0 0 0 0
28-03-2020 18.6 (17:00) 6.5 (00:00) 12.6 8.61 (17:30) 4.44 (05:30) 0 0 0 0 0
27-03-2020 17 (16:00) 4.8 (00:00) 10.9 8.06 (16:20) 4.17 (15:50) 0 0 0 0 0
26-03-2020 19.6 (17:10) 5.1 (00:00) 12.4 9.17 (15:00) 6.11 (19:10) 0 0 0 0 0
25-03-2020 17.2 (12:30) 9 (00:00) 13.1 8.33 (14:00) 4.72 (13:20) 0 0 0 0 0
24-03-2020 22 (16:00) 7.9 (00:00) 15 7.5 (17:40) 4.44 (16:50) 0 0 0 0 0
23-03-2020 20.5 (15:50) 8.9 (00:00) 14.7 9.72 (16:40) 6.11 (16:30) 0 0 0 0 0
22-03-2020 19.2 (17:20) 10.1 (06:50) 14.7 6.94 (15:30) 4.72 (16:30) 0 0 0 0 0
21-03-2020 15.2 (13:10) 10.9 (00:00) 13 6.67 (15:10) 4.44 (15:10) 1.6 1 0 0 0.6
20-03-2020 16.1 (14:00) 11.6 (00:00) 13.9 3.33 (11:40) 1.94 (03:00) 2 0 0.4 1.6 0
19-03-2020 18.3 (11:50) 11.5 (00:00) 14.9 6.67 (14:00) 4.17 (14:50) 0.6 0 0 0 0.6
18-03-2020 24.1 (15:50) 11.5 (00:00) 17.8 6.39 (02:30) 4.72 (02:30) 0 0 0 0 0
17-03-2020 21.5 (16:40) 7.7 (00:00) 14.6 11.11 (02:30) 5 (14:40) 0 0 0 0 0
16-03-2020 13.6 (15:00) 4 (00:00) 8.8 13.61 (15:30) 7.5 (15:20) 0.2 0 0 0.2 0
15-03-2020 14 (11:30) 4.7 (00:00) 9.3 12.78 (12:50) 7.78 (12:40) 6.8 0 0.6 5.4 0.8
14-03-2020 20.2 (16:30) 4.7 (00:00) 12.5 6.39 (17:30) 4.17 (12:40) 0 0 0 0 0
13-03-2020 17 (14:50) 8.1 (23:50) 12.6 10.83 (00:30) 5 (15:50) 0 0 0 0 0
12-03-2020 17.3 (13:30) 9.6 (00:00) 13.4 13.06 (22:40) 5.83 (17:10) 0 0 0 0 0
11-03-2020 17.8 (14:50) 7.4 (00:00) 12.6 6.39 (16:10) 3.89 (17:00) 0 0 0 0 0
10-03-2020 15.8 (14:00) 5.8 (00:00) 10.8 6.39 (16:30) 3.61 (16:20) 0 0 0 0 0
09-03-2020 15.6 (17:00) 5.7 (00:00) 10.7 5.83 (15:40) 3.89 (07:00) 0 0 0 0 0

Gráficas

Temp. máximas Temp. mínimas Temp. medias Precipitaciones Rachas de viento máximas Velocidades máximas media en intervalos de 10 minutos

Datos horarios

Fecha y hora oficial Temperatura (ºC) Velocidad del viento (km/h) Dirección del viento Racha (km/h) Dirección de racha Precipitación (mm) Presión (hPa) Tendencia (hPa) Humedad (%)
2020-04-07 23:00:00 13.1 3 Sudeste 8 Sur 0 1008.4 1.4 92
2020-04-07 22:00:00 13.8 3 Sur 5 Sur 0 1008 1.1 89
2020-04-07 21:00:00 15.3 2 Sur 13 Sudoeste 0 1007.3 0.6 84
2020-04-07 20:00:00 16.7 6 Sudoeste 12 Sudoeste 0 1007 0 83
2020-04-07 19:00:00 17.4 7 Sudoeste 16 Sudoeste 0 1006.9 0 80
2020-04-07 18:00:00 17.9 10 Sudoeste 21 Oeste 0 1006.7 0.1 80
2020-04-07 17:00:00 16.7 7 Sudoeste 23 Sudoeste 0 1007 0.4 85
2020-04-07 16:00:00 18.3 10 Sudoeste 23 Sudoeste 0 1006.9 0.1 84
2020-04-07 15:00:00 18 13 Sudoeste 29 Sudoeste 0 1006.6 -0.3 78
2020-04-07 14:00:00 18.8 6 Sur 17 Sur 0 1006.6 0.1 77
2020-04-07 13:00:00 16.6 6 Oeste 9 Oeste 0 1006.8 0.6 94
2020-04-07 12:00:00 14.4 3 Sudoeste 6 Sudoeste 0.2 1006.9 1.2 97
2020-04-07 11:00:00 13.3 3 Nordeste 7 Nordeste 1.4 1006.5 1.2 97
2020-04-07 10:00:00 12.8 3 Sur 6 Este 0.2 1006.2 1.1 96
2020-04-07 09:00:00 12.1 4 Este 10 Norte 0.6 1005.7 0.7 96
2020-04-07 08:00:00 12.1 6 Sudeste 9 Nordeste 0 1005.3 0.1 95
2020-04-07 07:00:00 11.8 3 Nordeste 8 Norte 0.2 1005.1 -0.2 94
2020-04-07 06:00:00 12.3 4 Este 9 Nordeste 0.2 1005 -0.6 92
2020-04-07 05:00:00 12.5 0 Calma 9 Este 0.2 1005.2 -0.2 92
2020-04-07 04:00:00 13 2 Este 9 Nordeste 0.2 1005.3 0 86
2020-04-07 03:00:00 12.8 3 Sur 10 Nordeste 0 1005.6 0.1 86
2020-04-07 02:00:00 12.9 4 Nordeste 9 Este 0 1005.4 -0.3 84
2020-04-07 01:00:00 12.9 0 Calma 8 Este 0 1005.3 -0.2 86
2020-04-07 00:00:00 13.2 4 Norte 11 Nordeste 0 1005.5 0.4 85
2020-04-06 23:00:00 13.5 5 Este 9 Nordeste 0 1005.7 0.4 84
2020-04-06 22:00:00 13.8 6 Nordeste 12 Nordeste 0 1005.5 0.2 83
2020-04-06 21:00:00 13.8 6 Nordeste 10 Nordeste 0 1005.1 0 85
2020-04-06 20:00:00 14.1 3 Norte 9 Noroeste 0 1005.3 0.1 88
2020-04-06 19:00:00 13.8 4 Noroeste 18 Este 0.4 1005.3 -0.3 87
2020-04-06 18:00:00 16.1 4 Nordeste 15 Sudeste 0 1005.1 -0.7 74
2020-04-06 17:00:00 16.1 5 Noroeste 7 Oeste 0 1005.2 -0.5 74
2020-04-06 16:00:00 16 5 Noroeste 10 Noroeste 0 1005.6 -0.2 73
2020-04-06 15:00:00 15.9 4 Norte 9 Norte 0 1005.8 0.7 76
2020-04-06 14:00:00 15.3 2 Norte 5 Noroeste 0 1005.7 1 82
2020-04-06 13:00:00 14.1 3 Sudoeste 8 Sur 0 1005.8 1.4 85
2020-04-06 12:00:00 13.7 3 Oeste 8 Nordeste 0 1005.1 1.1 86
2020-04-06 11:00:00 12.4 6 Nordeste 17 Este 0 1004.7 1.4 91
2020-04-06 10:00:00 11.1 11 Nordeste 16 Nordeste 0 1004.4 1.5 95
2020-04-06 09:00:00 10.5 8 Nordeste 14 Nordeste 0 1004 1.8 97
2020-04-06 08:00:00 10.5 8 Nordeste 11 Nordeste 0 1003.3 1.5 97
2020-04-06 07:00:00 10.5 7 Nordeste 11 Nordeste 0 1002.9 1.3 97
2020-04-06 06:00:00 10.5 5 Nordeste 8 Nordeste 0 1002.2 0.7 97
2020-04-06 05:00:00 10.7 0 Calma 4 Este 0 1001.8 0.3 96
2020-04-06 04:00:00 11.2 2 Este 7 Nordeste 0 1001.6 0.7 96
2020-04-06 03:00:00 11.8 3 Norte 7 Sur 0 1001.5 1.2 96
2020-04-06 02:00:00 12.1 4 Sudoeste 8 Sur 0.2 1001.5 1 96
2020-04-06 01:00:00 12.4 3 Sudeste 6 Sudeste 0 1000.9 1.6 95
2020-04-06 00:00:00 12.8 5 Sudeste 9 Sudeste 0 1000.3 1.8 94
2020-04-05 23:00:00 13.2 5 Sudoeste 12 Sudoeste 0 1000.5 2.6 94
2020-04-05 22:00:00 13.3 4 Sudoeste 14 Sudoeste 0 999.3 2.2 92
2020-04-05 21:00:00 13.9 5 Sudoeste 24 Sudoeste 0 998.5 1.7 88
2020-04-05 20:00:00 15.2 13 Sudoeste 29 Sudoeste 0 997.9 1.5 84
2020-04-05 19:00:00 14.7 14 Sudoeste 35 Sudoeste 0 997.1 1.1 88
2020-04-05 18:00:00 14.8 12 Sudoeste 34 Sudoeste 0.2 996.8 1.6 92
2020-04-05 17:00:00 14.8 16 Sudoeste 35 Sudoeste 0.8 996.4 1.3 95
2020-04-05 16:00:00 13.2 11 Sudoeste 46 Sudoeste 7.2 996 1.2 95
2020-04-05 15:00:00 14.4 15 Sur 34 Sudeste 7.6 995.2 0.7 95
2020-04-05 14:00:00 14.5 17 Sur 42 Sur 5.8 995.1 0.5 93
2020-04-05 13:00:00 14.8 15 Sur 37 Sudeste 1.8 994.8 0.3 91
2020-04-05 12:00:00 14.5 14 Sur 38 Sur 2 994.5 0.4 92
2020-04-05 11:00:00 14.5 17 Sudeste 38 Sur 0.6 994.6 1.2 90
2020-04-05 10:00:00 13.9 14 Sur 35 Sur 1.8 994.5 1.4 92
2020-04-05 09:00:00 13.3 10 Sudeste 36 Sur 2.2 994.1 0.8 90
2020-04-05 08:00:00 14.2 15 Sudeste 41 Sudeste 0 993.4 0 81
2020-04-05 07:00:00 14.2 16 Sur 39 Sur 0.2 993.1 -0.5 77
2020-04-05 06:00:00 14.3 15 Sudeste 40 Sur 0 993.3 -0.5 74
2020-04-05 05:00:00 14.6 13 Sudeste 39 Sudeste 0 993.4 -0.7 72
2020-04-05 04:00:00 15.2 16 Sur 44 Sur 0 993.6 -0.8 68
2020-04-05 03:00:00 16.7 20 Sudeste 46 Sudeste 0 993.8 -0.8 55
2020-04-05 02:00:00 16.6 13 Sudeste 41 Sudeste 0 994.1 -0.7 53
2020-04-05 01:00:00 16.5 14 Sudeste 33 Sur 0 994.4 -0.5 53
2020-04-05 00:00:00 16.8 15 Sur 40 Sudeste 0 994.6 -0.1 51
2020-04-04 23:00:00 16.3 13 Sudeste 26 Sur 0 994.8 0.1 55
2020-04-04 22:00:00 16.4 10 Sur 29 Sur 0 994.9 0.6 55
2020-04-04 21:00:00 16.5 6 Sur 20 Sudeste 0 994.7 0.5 54
2020-04-04 20:00:00 17.1 7 Sur 23 Sur 0 994.7 0.2 54
2020-04-04 19:00:00 16.8 7 Sudoeste 22 Sudoeste 0 994.3 -0.7 58
2020-04-04 18:00:00 18.1 6 Oeste 21 Sur 0 994.2 -0.9 54
2020-04-04 17:00:00 19.9 10 Sur 36 Sur 0 994.5 -1 40
2020-04-04 16:00:00 20.2 15 Sur 46 Sur 0 995 -1.3 37
2020-04-04 15:00:00 21.9 17 Sudeste 38 Sur 0 995.1 -1.5 34
2020-04-04 14:00:00 22.2 14 Sur 31 Sur 0 995.5 -1.1 36
2020-04-04 13:00:00 20.5 11 Sur 31 Sudeste 0 996.3 -0.4 41
2020-04-04 12:00:00 19.9 12 Sudeste 29 Sudeste 0 996.6 -0.1 42
2020-04-04 11:00:00 17 4 Sudeste 18 Sudeste 0 996.6 0 56
2020-04-04 10:00:00 14.2 4 Sur 10 Sur 0 996.7 0 60
2020-04-04 09:00:00 11.3 2 Sudeste 6 Este 0 996.7 -0.3 66
2020-04-04 08:00:00 11 3 Sudeste 9 Sudeste 0 996.6 -0.9 69
2020-04-04 07:00:00 9.4 7 Este 13 Nordeste 0 996.7 -1.6 75
2020-04-04 06:00:00 10.1 13 Nordeste 18 Nordeste 0 997 -1.8 77
2020-04-04 05:00:00 9.4 4 Nordeste 18 Nordeste 0 997.5 -1.7 81
2020-04-04 04:00:00 10.7 13 Nordeste 19 Nordeste 0 998.3 -1.3 76
2020-04-04 03:00:00 11.4 11 Nordeste 18 Este 0 998.8 -0.9 73
2020-04-04 02:00:00 11.3 10 Este 21 Nordeste 0 999.2 -0.7 74
2020-04-04 01:00:00 11.6 12 Este 17 Este 0 999.6 -0.2 75
2020-04-04 00:00:00 12.9 11 Nordeste 15 Nordeste 0 999.7 0.4 70
2020-04-03 23:00:00 13.4 0 Calma 10 Este 0 999.9 0.5 66
2020-04-03 22:00:00 14.2 4 Nordeste 6 Sudeste 0 999.8 0.4 61
2020-04-03 21:00:00 15.9 2 Sudeste 12 Sudoeste 0 999.3 -0.3 54
2020-04-03 20:00:00 17.9 7 Sudoeste 18 Sudoeste 0 999.4 -0.5 49
2020-04-03 19:00:00 18.2 8 Sudoeste 23 Sudoeste 0 999.4 -1.3 52
2020-04-03 18:00:00 18.7 11 Sudoeste 22 Sudoeste 0 999.6 -1.2 53
2020-04-03 17:00:00 18.6 10 Sudoeste 23 Sudoeste 0 999.9 -1.5 55
2020-04-03 16:00:00 17.4 12 Sudoeste 24 Sudoeste 0 1000.7 -1.5 59
2020-04-03 15:00:00 19.2 10 Oeste 18 Sudoeste 0 1000.8 -1.7 51
2020-04-03 14:00:00 17.8 6 Sudoeste 13 Sudoeste 0 1001.4 -0.9 54
2020-04-03 13:00:00 15.9 8 Oeste 13 Sudoeste 0 1002.2 0.1 58
2020-04-03 12:00:00 13.7 4 Sur 7 Sur 0 1002.5 0.5 66
2020-04-03 11:00:00 10.8 5 Sudoeste 16 Norte 0 1002.3 0.6 73
2020-04-03 10:00:00 8.9 5 Nordeste 14 Nordeste 0 1002.1 0.5 77
2020-04-03 09:00:00 5.6 9 Nordeste 14 Nordeste 0 1002 0.4 88
2020-04-03 08:00:00 5.3 3 Este 9 Este 0 1001.7 0 88
2020-04-03 07:00:00 6 3 Este 10 Este 0 1001.6 -0.4 86
2020-04-03 06:00:00 6.4 3 Este 12 Nordeste 0 1001.6 -0.8 83
2020-04-03 05:00:00 7.7 7 Nordeste 12 Nordeste 0 1001.7 -1.1 79
2020-04-03 04:00:00 7.9 5 Nordeste 14 Nordeste 0 1002 -1 78
2020-04-03 03:00:00 8.4 7 Nordeste 15 Nordeste 0 1002.4 -0.8 77
2020-04-03 02:00:00 8.9 3 Norte 15 Norte 0 1002.8 -0.5 75
2020-04-03 01:00:00 9.4 5 Nordeste 15 Noroeste 0 1003 0.2 74
2020-04-03 00:00:00 10 4 Noroeste 19 Norte 0 1003.2 1.1 72
2020-04-02 23:00:00 11.2 5 Norte 23 Noroeste 0 1003.3 1.5 68
2020-04-02 22:00:00 12.6 6 Norte 23 Norte 0 1002.8 1.3 67
2020-04-02 21:00:00 14.4 12 Noroeste 31 Norte 0 1002.1 0.7 59
2020-04-02 20:00:00 16.4 13 Norte 32 Norte 0 1001.8 0.3 54
2020-04-02 19:00:00 17.6 14 Noroeste 33 Norte 0 1001.5 0.1 52
2020-04-02 18:00:00 18.1 15 Norte 32 Noroeste 0 1001.4 0.1 50
2020-04-02 17:00:00 18.8 12 Norte 32 Noroeste 0 1001.5 -0.1 52
2020-04-02 16:00:00 18.4 14 Norte 35 Norte 0 1001.4 -0.6 51
2020-04-02 15:00:00 18.3 14 Norte 35 Norte 0 1001.3 -0.9 50
2020-04-02 14:00:00 17.6 16 Norte 32 Noroeste 0 1001.6 -0.6 54
2020-04-02 13:00:00 17.1 10 Norte 24 Nordeste 0 1002 0.5 60
2020-04-02 12:00:00 13.8 9 Norte 23 Nordeste 0 1002.2 1.2 72
2020-04-02 11:00:00 12 5 Norte 21 Norte 0 1002.2 1.6 79
2020-04-02 10:00:00 11.3 6 Noroeste 27 Noroeste 0 1001.5 1.5 82
2020-04-02 09:00:00 11 7 Norte 21 Norte 0 1001 1.4 83
2020-04-02 08:00:00 10.6 6 Noroeste 12 Norte 0 1000.6 1 84
2020-04-02 07:00:00 10.4 3 Norte 13 Norte 0 1000 0.4 83
2020-04-02 06:00:00 10.8 5 Norte 16 Noroeste 0 999.6 -0.2 82
2020-04-02 05:00:00 11 6 Norte 17 Norte 0 999.6 -0.2 83
2020-04-02 04:00:00 10.6 4 Noroeste 13 Norte 0 999.6 -0.1 84
2020-04-02 03:00:00 10 2 Sudeste 10 Noroeste 0 999.8 0.3 86
2020-04-02 02:00:00 10 4 Norte 16 Nordeste 0 999.8 0.4 84
2020-04-02 01:00:00 9.6 2 Norte 14 Noroeste 0 999.7 0.6 81
2020-04-02 00:00:00 9.9 3 Oeste 11 Norte 0 999.5 1 80
2020-04-01 23:00:00 10.8 3 Nordeste 9 Nordeste 0 999.4 1.2 76
2020-04-01 22:00:00 11.6 2 Norte 12 Nordeste 0 999.1 1.3 72
2020-04-01 21:00:00 12.3 3 Noroeste 16 Oeste 0 998.5 1.2 78
2020-04-01 20:00:00 13.4 8 Noroeste 13 Oeste 0 998.2 1 72
2020-04-01 19:00:00 14 5 Sur 24 Sudoeste 0 997.8 0.4 67
2020-04-01 18:00:00 16.1 9 Sur 22 Sudoeste 0 997.3 -0.6 60
2020-04-01 17:00:00 16.1 9 Sur 24 Sudoeste 0 997.2 -1.1 52
2020-04-01 16:00:00 15.8 10 Sudoeste 24 Sudoeste 0 997.4 -0.9 58
2020-04-01 15:00:00 13.6 11 Sudoeste 20 Sudoeste 0 997.9 -0.4 52
2020-04-01 14:00:00 13.9 8 Oeste 14 Oeste 0 998.3 0.4 52
2020-04-01 13:00:00 13.2 7 Sudoeste 15 Sudoeste 0 998.3 0.6 56
2020-04-01 12:00:00 12 3 Oeste 9 Oeste 0 998.3 1.1 69
2020-04-01 11:00:00 9.3 3 Norte 6 Nordeste 0 997.9 1.3 90
2020-04-01 10:00:00 7 3 Este 16 Este 0 997.7 1.4 93
2020-04-01 09:00:00 5.1 8 Nordeste 13 Nordeste 0 997.2 1.2 94
2020-04-01 08:00:00 5.2 3 Nordeste 9 Este 0 996.6 1 93
2020-04-01 07:00:00 6.4 5 Este 8 Nordeste 0 996.3 1 93
2020-04-01 06:00:00 6.7 5 Este 11 Nordeste 0 996 0.6 92
2020-04-01 05:00:00 6.8 6 Este 13 Sudeste 0 995.6 1.2 93
2020-04-01 04:00:00 7.3 5 Norte 15 Sur 0 995.3 1.6 91
2020-04-01 03:00:00 7.5 6 Este 22 Sur 0.6 995.4 2.4 92
2020-04-01 02:00:00 7.7 3 Sur 13 Sur 2.2 994.4 1.8 89
2020-04-01 01:00:00 8 5 Sudeste 9 Sur 0 993.7 1.2 82
2020-04-01 00:00:00 8.3 3 Este 13 Nordeste 0 993 0.9 80
2020-03-31 23:00:00 8.7 6 Nordeste 11 Nordeste 0.2 992.6 0.6 76
2020-03-31 22:00:00 9.2 4 Noroeste 12 Nordeste 0 992.5 0.4 70
2020-03-31 21:00:00 9.3 5 Norte 13 Nordeste 0 992.1 -0.1 70
2020-03-31 20:00:00 9.6 6 Nordeste 15 Nordeste 0 992 -0.3 72
2020-03-31 19:00:00 9.8 6 Norte 24 Norte 0 992.1 -0.5 67
2020-03-31 18:00:00 9.8 9 Nordeste 21 Nordeste 0 992.2 -0.8 65
2020-03-31 17:00:00 9.2 7 Norte 16 Nordeste 0 992.3 -1.2 68
2020-03-31 16:00:00 8.3 3 Norte 10 Noroeste 0 992.6 -0.4 75
2020-03-31 15:00:00 7.1 3 Sudeste 12 Norte 0.2 993 0.1 78
2020-03-31 14:00:00 6.4 7 Norte 22 Nordeste 0.6 993.5 -0.1 73
2020-03-31 13:00:00 8.4 12 Nordeste 23 Nordeste 0 993 -1.2 51
2020-03-31 12:00:00 8.1 8 Norte 24 Nordeste 0 992.9 -2.1 53
2020-03-31 11:00:00 6.5 9 Nordeste 24 Nordeste 0 993.6 -2 62
2020-03-31 10:00:00 4.7 7 Norte 23 Nordeste 0 994.2 -1.5 69
2020-03-31 09:00:00 3.6 10 Nordeste 21 Nordeste 0 995 -1.2 73
2020-03-31 08:00:00 3.2 5 Norte 18 Norte 0 995.6 -1.3 73
2020-03-31 07:00:00 3.6 6 Norte 22 Norte 0 995.7 -2.2 71
2020-03-31 06:00:00 4.2 8 Norte 21 Nordeste 0 996.2 -2.5 68
2020-03-31 05:00:00 4.4 6 Norte 25 Nordeste 0 996.9 -2.4 66
2020-03-31 04:00:00 4.8 6 Nordeste 25 Norte 0 997.9 -1.8 65
2020-03-31 03:00:00 4.9 8 Nordeste 32 Nordeste 0 998.7 -1.3 65
2020-03-31 02:00:00 5 9 Nordeste 35 Norte 0 999.3 -0.6 65
2020-03-31 01:00:00 5.2 11 Nordeste 33 Nordeste 0 999.7 0.3 60
2020-03-31 00:00:00 5.5 11 Nordeste 30 Norte 0 1000 1 55
2020-03-30 23:00:00 6.2 12 Nordeste 40 Norte 0 999.9 1.2 49
2020-03-30 22:00:00 7 14 Nordeste 42 Nordeste 0 999.4 0.8 49
2020-03-30 21:00:00 8.4 14 Nordeste 50 Norte 0 999 0.4 45
2020-03-30 20:00:00 10.1 17 Nordeste 48 Nordeste 0 998.7 -0.2 38
2020-03-30 19:00:00 11.3 16 Norte 45 Nordeste 0 998.6 -1 39
2020-03-30 18:00:00 13 14 Norte 40 Nordeste 0 998.6 -1.6 38
2020-03-30 17:00:00 13.5 16 Nordeste 57 Nordeste 0 998.9 -2.5 36
2020-03-30 16:00:00 12.6 17 Norte 47 Nordeste 0 999.6 -2.3 39
2020-03-30 15:00:00 11.9 16 Nordeste 50 Nordeste 0 1000.2 -2 42
2020-03-30 14:00:00 10.2 19 Nordeste 44 Norte 0 1001.4 -0.6 43
2020-03-30 13:00:00 9.3 15 Nordeste 42 Nordeste 0 1001.9 0.1 47
2020-03-30 12:00:00 8.8 15 Nordeste 44 Nordeste 0 1002.2 0.7 51
2020-03-30 11:00:00 8.9 15 Nordeste 42 Nordeste 0 1002 0.5 52
2020-03-30 10:00:00 8.6 21 Nordeste 41 Nordeste 0 1001.8 0.5 54
2020-03-30 09:00:00 8.2 20 Nordeste 37 Nordeste 0 1001.5 -0.1 52
2020-03-30 08:00:00 8.6 10 Nordeste 33 Norte 0 1001.5 -0.6 56
2020-03-30 07:00:00 8.5 13 Norte 29 Nordeste 0 1001.3 -1.1 60
2020-03-30 06:00:00 8.8 9 Norte 27 Norte 0 1001.6 -1.2 63
2020-03-30 05:00:00 8.7 11 Norte 34 Nordeste 0 1002.1 -1.1 66
2020-03-30 04:00:00 8.9 10 Norte 25 Norte 0 1002.4 -1.2 67
2020-03-30 03:00:00 9.4 9 Norte 31 Norte 0 1002.8 -1 68
2020-03-30 02:00:00 9.9 9 Norte 32 Nordeste 0 1003.2 -0.5 68
2020-03-30 01:00:00 10.5 8 Norte 30 Nordeste 0 1003.6 0 66
2020-03-30 00:00:00 10.8 6 Norte 21 Norte 0 1003.8 0.8 65
2020-03-29 23:00:00 11.7 10 Norte 28 Noroeste 0 1003.7 1 62
2020-03-29 22:00:00 12.8 6 Norte 20 Norte 0 1003.6 1.3 58
2020-03-29 21:00:00 14.9 9 Norte 18 Norte 0 1003 0.7 53
2020-03-29 20:00:00 16.4 3 Sudeste 18 Sur 0 1002.7 0.2 48
2020-03-29 19:00:00 17.2 8 Sudoeste 23 Sudoeste 0 1002.3 -0.8 47
2020-03-29 18:00:00 19.2 11 Oeste 23 Sudoeste 0 1002.3 -1.5 44
2020-03-29 17:00:00 20.4 12 Sudoeste 23 Sudoeste 0 1002.5 -1.7 43
2020-03-29 16:00:00 20.1 13 Sudoeste 22 Sudoeste 0 1003.1 -1.6 43
2020-03-29 15:00:00 18.9 8 Sudoeste 18 Oeste 0 1003.8 -1.3 48
2020-03-29 14:00:00 18.7 7 Sudoeste 13 Oeste 0 1004.2 -0.8 46
2020-03-29 13:00:00 16.5 6 Sur 10 Sur 0 1004.7 -0.3 54
2020-03-29 12:00:00 13.1 5 Sudoeste 9 Sudoeste 0 1005.1 0 67
2020-03-29 11:00:00 10.3 4 Norte 11 Este 0 1005 0.2 74
2020-03-29 10:00:00 6.9 4 Nordeste 11 Nordeste 0 1005 0.5 82
2020-03-29 09:00:00 6.2 5 Nordeste 11 Nordeste 0 1005.1 0.7 80
2020-03-29 08:00:00 5.9 2 Este 4 Sudoeste 0 1004.8 0.2 81
2020-03-29 07:00:00 6.5 3 Este 12 Nordeste 0 1004.5 -0.4 79
2020-03-29 06:00:00 7.4 6 Nordeste 11 Nordeste 0 1004.4 -0.6 76
2020-03-29 05:00:00 7.2 3 Sudoeste 11 Nordeste 0 1004.6 -0.6 77
2020-03-29 03:00:00 9 5 Nordeste 15 Nordeste 0 1005 -0.5 69
2020-03-29 01:00:00 9 9 Este 15 Este 0 1005.2 -0.2 68
2020-03-29 00:00:00 8.9 7 Nordeste 14 Este 0 1005.4 0.1 71
2020-03-28 23:00:00 9.9 7 Nordeste 13 Este 0 1005.5 0.7 70
2020-03-28 22:00:00 10.6 10 Este 12 Este 0 1005.4 1.2 67
2020-03-28 21:00:00 11.8 2 Este 11 Sur 0 1005.3 2 63
2020-03-28 20:00:00 13.2 5 Sur 19 Sudoeste 0 1004.8 1.9 58
2020-03-28 19:00:00 15.3 11 Sudoeste 31 Sudoeste 0 1004.2 1.2 50
2020-03-28 18:00:00 17.2 9 Sudoeste 31 Sudoeste 0 1003.3 -0.1 47
2020-03-28 17:00:00 18.6 9 Sudoeste 25 Sudoeste 0 1002.9 -1 42
2020-03-28 16:00:00 18.3 11 Sudoeste 23 Sudoeste 0 1003 -1.3 42
2020-03-28 15:00:00 17.7 12 Sudoeste 22 Sudoeste 0 1003.4 -1.3 42
2020-03-28 14:00:00 17.7 9 Sudoeste 17 Oeste 0 1003.9 -0.7 40
2020-03-28 13:00:00 17.1 8 Oeste 14 Sudoeste 0 1004.3 0.1 39
2020-03-28 12:00:00 15.4 5 Noroeste 11 Norte 0 1004.7 1.3 53
2020-03-28 11:00:00 11.9 3 Nordeste 7 Nordeste 0 1004.6 2 63
2020-03-28 10:00:00 9.3 0 Calma 5 Este 0 1004.2 2.1 71
2020-03-28 09:00:00 7.6 3 Norte 17 Nordeste 0 1003.4 2 68
2020-03-28 08:00:00 7.1 8 Nordeste 19 Nordeste 0 1002.6 1.5 66
2020-03-28 07:00:00 7.1 3 Nordeste 18 Nordeste 0 1002.1 1.4 65
2020-03-28 06:00:00 7.9 13 Nordeste 23 Nordeste 0 1001.4 0.6 59
2020-03-28 05:00:00 7.2 5 Nordeste 19 Nordeste 0 1001.1 0.2 66
2020-03-28 04:00:00 7.3 13 Nordeste 16 Nordeste 0 1000.7 -0.1 63
2020-03-28 03:00:00 6.9 11 Nordeste 16 Este 0 1000.8 0.2 68
2020-03-28 02:00:00 6.9 5 Nordeste 17 Este 0 1000.9 0.4 73
2020-03-28 01:00:00 7.6 10 Nordeste 21 Nordeste 0 1000.8 0.7 73
2020-03-28 00:00:00 7.9 13 Nordeste 23 Nordeste 0 1000.6 1.2 74
2020-03-27 23:00:00 8.6 10 Este 16 Nordeste 0 1000.5 2 72
2020-03-27 22:00:00 9.1 10 Nordeste 12 Nordeste 0 1000.1 2.2 71
2020-03-27 21:00:00 9.8 4 Este 12 Sur 0 999.4 2.3 69
2020-03-27 20:00:00 11.3 6 Sur 18 Sur 0 998.5 1.7 64
2020-03-27 19:00:00 13.7 10 Sudoeste 26 Sudoeste 0 997.9 1.2 50
2020-03-27 18:00:00 15.2 14 Sudoeste 29 Sudoeste 0 997.1 0.3 47
2020-03-27 17:00:00 16.6 10 Sudoeste 29 Sudoeste 0 996.8 -0.4 44
2020-03-27 16:00:00 16.7 13 Sudoeste 27 Sudoeste 0 996.7 -1 45
2020-03-27 15:00:00 16.6 13 Sudoeste 23 Sudoeste 0 996.8 -1.3 40
2020-03-27 14:00:00 16.6 6 Oeste 19 Sudoeste 0 997.2 -1.1 35
2020-03-27 13:00:00 15.6 7 Sudoeste 13 Oeste 0 997.7 -0.4 39
2020-03-27 12:00:00 14 5 Sudoeste 11 Sudoeste 0 998.1 0.4 48
2020-03-27 11:00:00 11.4 5 Sudoeste 8 Sudoeste 0 998.3 1 62
2020-03-27 10:00:00 8.7 3 Sudoeste 5 Sur 0 998.1 1.3 71
2020-03-27 09:00:00 6.1 0 Calma 9 Nordeste 0 997.7 1.1 75
2020-03-27 08:00:00 5.3 5 Nordeste 12 Nordeste 0 997.3 0.7 73
2020-03-27 07:00:00 5 4 Este 13 Este 0 996.8 -0.3 73
2020-03-27 06:00:00 6 5 Nordeste 17 Nordeste 0 996.6 -0.6 71
2020-03-27 05:00:00 6.4 8 Nordeste 24 Norte 0 996.6 -0.8 74
2020-03-27 04:00:00 6.7 5 Norte 20 Nordeste 0 997.1 -0.6 72
2020-03-27 03:00:00 6.8 6 Nordeste 15 Norte 0 997.2 -0.9 69
2020-03-27 02:00:00 6.7 4 Este 11 Nordeste 0 997.4 -0.7 67
2020-03-27 01:00:00 7.1 5 Norte 18 Norte 0 997.7 -0.5 69
2020-03-27 00:00:00 8 10 Norte 20 Noroeste 0 998.1 0 66
2020-03-26 23:00:00 8.8 13 Norte 24 Norte 0 998.1 0.5 66
2020-03-26 22:00:00 10.4 6 Norte 22 Norte 0 998.2 1.1 63
2020-03-26 21:00:00 11.3 12 Norte 24 Norte 0 998.1 1.2 63
2020-03-26 20:00:00 12.9 10 Noroeste 33 Noroeste 0 997.6 0.3 59
2020-03-26 19:00:00 16 19 Noroeste 32 Noroeste 0 997.1 -0.5 51
2020-03-26 18:00:00 18.1 17 Noroeste 28 Oeste 0 996.9 -1.4 35
2020-03-26 17:00:00 19.5 10 Noroeste 33 Noroeste 0 997.3 -1.7 32
2020-03-26 16:00:00 18.9 18 Noroeste 32 Noroeste 0 997.6 -2.2 27
2020-03-26 15:00:00 18.5 19 Noroeste 33 Noroeste 0 998.3 -1.9 32
2020-03-26 14:00:00 17.6 16 Noroeste 30 Noroeste 0 999 -1.6 36
2020-03-26 13:00:00 15.1 8 Sudoeste 16 Sudoeste 0 999.8 -1.1 58
2020-03-26 12:00:00 13.8 7 Sudoeste 13 Sudoeste 0 1000.2 -0.9 61
2020-03-26 11:00:00 11.5 4 Oeste 7 Oeste 0 1000.6 -0.6 68
2020-03-26 10:00:00 8.6 3 Sudoeste 10 Nordeste 0 1000.9 0 80
2020-03-26 09:00:00 6.4 5 Nordeste 15 Nordeste 0 1001.1 0.4 93
2020-03-26 08:00:00 5.7 10 Nordeste 13 Nordeste 0 1001.2 0.4 95
2020-03-26 07:00:00 6.2 5 Este 14 Este 0 1000.9 -0.4 93
2020-03-26 06:00:00 7.1 6 Nordeste 18 Nordeste 0 1000.7 -1.1 92
2020-03-26 05:00:00 8.7 6 Nordeste 11 Nordeste 0 1000.8 -1 92
2020-03-26 04:00:00 9 5 Nordeste 11 Nordeste 0 1001.3 -0.9 92
2020-03-26 03:00:00 9.2 6 Nordeste 14 Nordeste 0 1001.8 -0.3 92
2020-03-26 02:00:00 10.3 4 Nordeste 8 Nordeste 0 1001.8 -0.7 94
2020-03-26 01:00:00 10.7 7 Este 11 Este 0 1002.2 -0.4 93
2020-03-26 00:00:00 11 4 Nordeste 6 Nordeste 0 1002.1 -0.4 93
2020-03-25 23:00:00 10.7 0 Calma 7 Nordeste 0 1002.5 0.1 92
2020-03-25 22:00:00 11.2 2 Este 6 Este 0 1002.6 0.3 90
2020-03-25 21:00:00 11.8 4 Este 6 Sudoeste 0 1002.5 0.4 88
2020-03-25 20:00:00 12.2 4 Oeste 17 Oeste 0 1002.4 0.2 87
2020-03-25 19:00:00 13.5 9 Oeste 18 Sudoeste 0 1002.3 0.2 81
2020-03-25 18:00:00 14.9 7 Sudoeste 26 Sudoeste 0 1002.1 -0.3 76
2020-03-25 17:00:00 14.7 15 Sudoeste 27 Sudoeste 0 1002.2 -0.4 76
2020-03-25 16:00:00 16 13 Sudoeste 30 Sudoeste 0 1002.1 -0.7 75
2020-03-25 15:00:00 14.8 13 Sudoeste 29 Sudoeste 0 1002.4 -0.5 79
2020-03-25 14:00:00 15.4 14 Sudoeste 30 Sudoeste 0 1002.6 -0.3 77
2020-03-25 13:00:00 16.7 11 Sudoeste 19 Sudoeste 0 1002.8 0 71
2020-03-25 12:00:00 16.7 9 Sudoeste 15 Sudoeste 0 1002.9 0.3 66
2020-03-25 11:00:00 15.1 5 Sudoeste 10 Sudoeste 0 1002.9 0.6 67
2020-03-25 10:00:00 12.6 0 Calma 6 Nordeste 0 1002.8 1 76
2020-03-25 09:00:00 10.4 2 Este 16 Nordeste 0 1002.6 0.9 82
2020-03-25 08:00:00 9.3 9 Nordeste 15 Este 0 1002.3 0.9 83
2020-03-25 07:00:00 9.2 5 Este 23 Nordeste 0 1001.8 0.3 82
2020-03-25 06:00:00 9.7 5 Nordeste 18 Nordeste 0 1001.7 -0.1 80
2020-03-25 05:00:00 10.4 6 Nordeste 19 Nordeste 0 1001.4 -0.5 78
2020-03-25 04:00:00 10.2 6 Este 19 Nordeste 0 1001.5 -0.4 79
2020-03-25 03:00:00 10.5 12 Nordeste 20 Nordeste 0 1001.8 -0.2 78
2020-03-25 02:00:00 10.8 12 Este 19 Este 0 1001.9 -0.1 77
2020-03-25 01:00:00 11.1 13 Nordeste 18 Este 0 1001.9 0.1 75
2020-03-25 00:00:00 12 9 Nordeste 13 Este 0 1002 0.4 72
2020-03-24 23:00:00 12.7 5 Este 7 Este 0 1002 0.7 69
2020-03-24 22:00:00 12.9 5 Este 6 Este 0 1001.8 1 69
2020-03-24 21:00:00 14.4 0 Calma 8 Sudoeste 0 1001.6 1.4 66
2020-03-24 20:00:00 16.2 3 Sur 17 Sudoeste 0 1001.3 1.1 57
2020-03-24 19:00:00 18.2 9 Sudoeste 23 Sudoeste 0 1000.8 0.5 51
2020-03-24 18:00:00 20.4 10 Sudoeste 27 Sudoeste 0 1000.2 -0.4 45
2020-03-24 17:00:00 20.6 13 Sudoeste 26 Sudoeste 0 1000.2 -1 45
2020-03-24 16:00:00 21.8 11 Sudoeste 24 Sudoeste 0 1000.3 -1.3 42
2020-03-24 15:00:00 20.9 12 Sudoeste 23 Oeste 0 1000.6 -1.5 47
2020-03-24 14:00:00 21.5 10 Sudoeste 19 Sudoeste 0 1001.2 -0.8 42
2020-03-24 13:00:00 20.8 8 Noroeste 14 Noroeste 0 1001.6 -0.3 47
2020-03-24 12:00:00 19 6 Sudoeste 11 Sudoeste 0 1002.1 0.4 47
2020-03-24 11:00:00 16.8 4 Sudoeste 8 Sudoeste 0 1002 0.5 62
2020-03-24 10:00:00 14.1 2 Sudoeste 14 Este 0 1001.9 1 70
2020-03-24 09:00:00 12.6 8 Nordeste 17 Este 0 1001.7 1 70
2020-03-24 08:00:00 10.5 11 Nordeste 18 Nordeste 0 1001.5 0.6 76
2020-03-24 07:00:00 9.3 6 Este 13 Este 0 1000.9 -0.1 83
2020-03-24 06:00:00 8 3 Nordeste 12 Este 0 1000.7 -0.6 89
2020-03-24 05:00:00 8.5 0 Calma 15 Nordeste 0 1000.9 -0.5 84
2020-03-24 04:00:00 9.1 5 Nordeste 11 Este 0 1001 -0.6 88
2020-03-24 03:00:00 9.3 4 Norte 14 Nordeste 0 1001.3 -0.3 83
2020-03-24 02:00:00 10.2 3 Nordeste 12 Nordeste 0 1001.4 0.1 82
2020-03-24 01:00:00 10.4 6 Nordeste 14 Nordeste 0 1001.6 0.3 81
2020-03-24 00:00:00 11 6 Nordeste 21 Nordeste 0 1001.6 0.6 79
2020-03-23 23:00:00 11.2 5 Norte 23 Nordeste 0 1001.3 0.8 77
2020-03-23 22:00:00 11.7 10 Norte 24 Nordeste 0 1001.3 1.4 75
2020-03-23 21:00:00 12.5 9 Norte 21 Nordeste 0 1001 1.5 75
2020-03-23 20:00:00 13.3 7 Noroeste 31 Noroeste 0 1000.5 0.9 74
2020-03-23 19:00:00 15.7 15 Noroeste 32 Noroeste 0 999.9 0.1 68
2020-03-23 18:00:00 17.7 17 Noroeste 35 Noroeste 0 999.5 -0.7 62
2020-03-23 17:00:00 19.3 17 Noroeste 35 Noroeste 0 999.6 -1.6 56
2020-03-23 16:00:00 20 17 Noroeste 27 Oeste 0 999.8 -2 52
2020-03-23 15:00:00 19.7 17 Noroeste 28 Noroeste 0 1000.2 -2 54
2020-03-23 14:00:00 19.6 8 Noroeste 18 Norte 0 1001.2 -1.5 51
2020-03-23 13:00:00 18.3 8 Norte 19 Noroeste 0 1001.8 -0.6 52
2020-03-23 12:00:00 16.6 10 Norte 22 Noroeste 0 1002.2 0.3 62
2020-03-23 11:00:00 15.3 8 Norte 19 Noroeste 0 1002.7 1.2 66
2020-03-23 10:00:00 13.2 7 Norte 24 Nordeste 0 1002.4 1.5 74
2020-03-23 09:00:00 11.1 9 Norte 29 Nordeste 0 1001.9 1.2 81
2020-03-23 08:00:00 9.7 9 Nordeste 18 Nordeste 0 1001.5 1.1 85
2020-03-23 07:00:00 9.1 7 Nordeste 15 Nordeste 0 1000.9 0.7 88
2020-03-23 06:00:00 9 0 Calma 12 Este 0 1000.7 0.3 87
2020-03-23 05:00:00 9.4 4 Nordeste 10 Nordeste 0 1000.4 -0.2 85
2020-03-23 04:00:00 10.2 7 Nordeste 18 Nordeste 0 1000.2 -0.8 83
2020-03-23 03:00:00 10 5 Norte 12 Nordeste 0 1000.4 -0.7 84
2020-03-23 02:00:00 10.7 8 Nordeste 16 Nordeste 0 1000.6 -0.2 82
2020-03-23 01:00:00 11 3 Norte 12 Norte 0 1001 0.4 80
2020-03-23 00:00:00 11.6 5 Norte 17 Noroeste 0 1001.1 1.1 79
2020-03-22 23:00:00 12.4 6 Norte 17 Noroeste 0 1000.8 1.8 79
2020-03-22 22:00:00 13 5 Norte 12 Norte 0 1000.6 2.1 84
2020-03-22 21:00:00 13.8 3 Nordeste 14 Norte 0 1000 1.7 81
2020-03-22 20:00:00 14.9 3 Noroeste 9 Sur 0 999 0.8 79
2020-03-22 19:00:00 16.7 3 Sur 9 Sur 0 998.5 0.3 73
2020-03-22 18:00:00 17.7 6 Sur 16 Sudoeste 0 998.3 -0.3 68
2020-03-22 17:00:00 18.8 11 Noroeste 24 Oeste 0 998.2 -0.8 59
2020-03-22 16:00:00 18.8 12 Oeste 25 Oeste 0 998.2 -1.1 63
2020-03-22 15:00:00 17.6 15 Oeste 22 Noroeste 0 998.6 -0.9 64
2020-03-22 14:00:00 17.1 12 Oeste 24 Oeste 0 999 -0.4 68
2020-03-22 13:00:00 15.9 12 Noroeste 21 Oeste 0 999.3 -0.2 72
2020-03-22 12:00:00 15.2 4 Norte 17 Nordeste 0 999.5 0.4 71
2020-03-22 11:00:00 13.9 10 Norte 17 Norte 0 999.4 0.8 78
2020-03-22 10:00:00 12.5 6 Norte 14 Norte 0 999.5 1.2 83
2020-03-22 09:00:00 10.8 2 Nordeste 10 Norte 0 999.1 1 89
2020-03-22 08:00:00 10.2 6 Nordeste 12 Nordeste 0 998.6 0.8 91
2020-03-22 07:00:00 10.3 5 Nordeste 11 Norte 0 998.3 0.6 92
2020-03-22 06:00:00 10.7 0 Calma 8 Nordeste 0 998.1 0.2 91
2020-03-22 05:00:00 10.7 4 Norte 11 Noroeste 0 997.8 -0.2 94
2020-03-22 04:00:00 11 6 Norte 13 Norte 0 997.7 -0.5 96
2020-03-22 03:00:00 11 3 Nordeste 9 Este 0 997.9 -0.2 96
2020-03-22 02:00:00 11.1 4 Nordeste 7 Nordeste 0 998 0.1 96
2020-03-22 01:00:00 11 2 Nordeste 8 Este 0 998.2 0.4 96
2020-03-22 00:00:00 11.2 2 Sudeste 5 Nordeste 0 998.1 0.5 95
2020-03-21 23:00:00 11.5 3 Nordeste 7 Este 0 997.9 0.6 94
2020-03-21 22:00:00 11.7 3 Este 5 Nordeste 0.6 997.8 1.2 92
2020-03-21 21:00:00 12 2 Norte 5 Sudeste 0 997.6 1.4 89
2020-03-21 20:00:00 12.2 4 Sudoeste 14 Sur 0 997.3 1.4 88
2020-03-21 19:00:00 12.5 6 Sudoeste 19 Sudoeste 0 996.6 0.6 87
2020-03-21 18:00:00 12.6 10 Sudoeste 21 Sudoeste 0 996.2 0 85
2020-03-21 17:00:00 13 10 Sudoeste 21 Sudoeste 0 995.9 -0.7 80
2020-03-21 16:00:00 13.9 10 Sudoeste 24 Sudoeste 0 996 -0.4 78
2020-03-21 15:00:00 14.7 12 Sudoeste 23 Sudoeste 0 996.2 -0.2 79
2020-03-21 14:00:00 13.9 10 Sudoeste 18 Sudoeste 0 996.6 0.3 84
2020-03-21 13:00:00 14.8 8 Oeste 21 Sudoeste 0 996.4 0.1 89
2020-03-21 12:00:00 14.4 0 Calma 10 Noroeste 0 996.4 0.9 80
2020-03-21 11:00:00 14.1 5 Norte 9 Este 0 996.3 0.9 86
2020-03-21 10:00:00 12.6 4 Sur 16 Sur 0 996.3 1 96
2020-03-21 09:00:00 11.6 4 Sur 13 Nordeste 0 995.5 0.1 98
2020-03-21 08:00:00 11 8 Nordeste 12 Nordeste 0 995.4 -0.4 98
2020-03-21 07:00:00 11.4 4 Norte 6 Norte 0 995.3 -0.2 98
2020-03-21 06:00:00 11.4 4 Norte 12 Este 0.2 995.4 -0.8 97
2020-03-21 05:00:00 11.3 5 Sur 11 Sur 0.4 995.8 -0.9 97
2020-03-21 04:00:00 11.3 3 Nordeste 7 Nordeste 0 995.5 -1.7 97
2020-03-21 03:00:00 11.6 4 Noroeste 7 Nordeste 0 996.2 -1.4 97
2020-03-21 02:00:00 11.8 4 Nordeste 5 Nordeste 0.4 996.7 -1.3 96
2020-03-21 01:00:00 12 0 Calma 4 Sudeste 0 997.2 -0.9 96
2020-03-21 00:00:00 11.9 2 Sur 4 Sudeste 0 997.6 -0.5 96
2020-03-20 23:00:00 11.8 3 Sur 7 Sudeste 0 998 0.1 95
2020-03-20 22:00:00 11.9 2 Sudeste 5 Sudeste 0 998.1 0.3 95
2020-03-20 21:00:00 12 4 Sur 9 Sudoeste 0 998.1 0.4 94
2020-03-20 20:00:00 12.5 4 Sudoeste 8 Sudoeste 0 997.9 0 91
2020-03-20 19:00:00 13.6 4 Sudoeste 9 Sudoeste 0 997.8 -0.5 91
2020-03-20 18:00:00 14.1 3 Oeste 8 Norte 0 997.7 -1 87
2020-03-20 17:00:00 13.9 4 Norte 8 Norte 0.6 997.9 -1.1 93
2020-03-20 16:00:00 13.5 3 Sur 6 Sudoeste 0.4 998.3 -0.8 92
2020-03-20 15:00:00 13.1 4 Sudoeste 10 Sudoeste 0.2 998.7 -0.8 90
2020-03-20 14:00:00 15.9 4 Sudoeste 7 Sudoeste 0 999 -0.4 78
2020-03-20 13:00:00 13.2 3 Norte 7 Norte 0.4 999.1 -0.1 91
2020-03-20 12:00:00 12.5 4 Oeste 12 Sudoeste 0 999.5 0.5 91
2020-03-20 11:00:00 12.6 4 Sudoeste 6 Sudoeste 0 999.4 0.5 90
2020-03-20 10:00:00 12.3 0 Calma 4 Sudoeste 0 999.2 0.4 93
2020-03-20 09:00:00 11.9 2 Noroeste 4 Oeste 0 999 0.3 94
2020-03-20 08:00:00 11.9 2 Norte 9 Sudoeste 0.2 998.9 0.2 95
2020-03-20 07:00:00 11.8 4 Oeste 9 Oeste 0.2 998.8 -0.1 95
2020-03-20 06:00:00 11.8 0 Calma 5 Sur 0 998.7 -0.6 95
2020-03-20 05:00:00 11.8 3 Sudeste 5 Sur 0 998.7 -0.7 95
2020-03-20 04:00:00 11.8 3 Sur 9 Sudoeste 0 998.9 -1 95
2020-03-20 03:00:00 11.7 7 Sur 11 Sur 0 999.3 -1.2 95
2020-03-20 02:00:00 11.9 0 Calma 6 Sudeste 0 999.4 -1.3 94
2020-03-20 01:00:00 11.9 3 Sudeste 8 Nordeste 0 999.9 -1.1 94
2020-03-20 00:00:00 12.2 3 Nordeste 5 Nordeste 0.6 1000.5 -0.8 93
2020-03-19 23:00:00 12.1 2 Sur 3 Sur 0 1000.7 -0.6 91
2020-03-19 22:00:00 12.5 0 Calma 3 Oeste 0 1001 -0.1 90
2020-03-19 21:00:00 12.6 3 Sudoeste 5 Sur 0 1001.3 0.4 88
2020-03-19 20:00:00 13 3 Sur 17 Sudoeste 0 1001.3 0.1 86
2020-03-19 19:00:00 13.2 12 Sudoeste 20 Sudoeste 0 1001.1 -0.6 86
2020-03-19 18:00:00 14.6 9 Sudoeste 21 Sudoeste 0 1000.9 -1.5 80
2020-03-19 17:00:00 16.4 9 Sudoeste 18 Sur 0 1001.2 -2.1 71
2020-03-19 16:00:00 16.8 8 Sudoeste 18 Sudoeste 0 1001.7 -2.2 71
2020-03-19 15:00:00 16.8 11 Sudoeste 23 Sudoeste 0 1002.4 -1.9 70
2020-03-19 14:00:00 17.3 13 Sudoeste 24 Sudoeste 0 1003.3 -1.4 68
2020-03-19 13:00:00 17.8 8 Sudoeste 17 Sudoeste 0 1003.9 -0.7 69
2020-03-19 12:00:00 18.1 8 Oeste 13 Sudoeste 0 1004.3 -0.1 64
2020-03-19 11:00:00 16.1 3 Sudoeste 6 Sudoeste 0 1004.7 0.5 69
2020-03-19 10:00:00 14.3 6 Nordeste 12 Este 0 1004.6 0.6 74
2020-03-19 09:00:00 12.4 0 Calma 12 Este 0 1004.4 0.1 79
2020-03-19 08:00:00 11.7 6 Nordeste 11 Nordeste 0 1004.2 0 79
2020-03-19 07:00:00 11.8 2 Nordeste 11 Este 0 1004 -0.5 78
2020-03-19 06:00:00 11.9 3 Norte 8 Nordeste 0 1004.3 -1 79
2020-03-19 05:00:00 12 2 Sudoeste 17 Nordeste 0 1004.2 -1.6 79
2020-03-19 04:00:00 11.9 9 Nordeste 17 Nordeste 0 1004.5 -1.7 83
2020-03-19 03:00:00 12.6 2 Sudeste 10 Nordeste 0 1005.3 -1.3 80
2020-03-19 02:00:00 13.5 6 Nordeste 11 Este 0 1005.8 -0.9 78
2020-03-19 01:00:00 13.9 2 Norte 4 Norte 0 1006.2 -0.7 79
2020-03-19 00:00:00 14.4 2 Sudeste 4 Sudeste 0 1006.6 -0.2 76
2020-03-18 23:00:00 15.1 0 Calma 9 Nordeste 0 1006.7 0.2 76
2020-03-18 22:00:00 15.6 9 Nordeste 11 Nordeste 0 1006.9 0.6 76
2020-03-18 21:00:00 16.2 0 Calma 5 Sur 0 1006.8 0.6 73
2020-03-18 20:00:00 17.6 3 Sur 6 Sur 0 1006.5 0.1 67
2020-03-18 19:00:00 19.6 3 Sur 10 Sur 0 1006.3 -0.6 61
2020-03-18 18:00:00 21 5 Sudoeste 13 Sudoeste 0 1006.2 -1.2 54
2020-03-18 17:00:00 21.5 8 Sudoeste 19 Sudoeste 0 1006.4 -1.7 53
2020-03-18 16:00:00 22.9 11 Sudoeste 21 Oeste 0 1006.9 -1.9 48
2020-03-18 15:00:00 23.5 12 Noroeste 22 Oeste 0 1007.4 -2.5 44
2020-03-18 14:00:00 22.9 13 Oeste 23 Oeste 0 1008.1 -2.5 47
2020-03-18 13:00:00 22.3 5 Noroeste 13 Oeste 0 1008.8 -1.9 46
2020-03-18 12:00:00 20 5 Oeste 7 Noroeste 0 1009.9 -0.5 56
2020-03-18 11:00:00 17.1 3 Noroeste 10 Norte 0 1010.6 0.2 66
2020-03-18 10:00:00 14.8 4 Nordeste 13 Este 0 1010.7 0.1 69
2020-03-18 09:00:00 12.4 6 Este 16 Este 0 1010.4 0.1 70
2020-03-18 08:00:00 11.6 10 Este 17 Este 0 1010.4 0.1 74
2020-03-18 07:00:00 12.2 9 Este 18 Nordeste 0 1010.6 0.2 71
2020-03-18 06:00:00 12.2 12 Nordeste 22 Nordeste 0 1010.3 -0.5 71
2020-03-18 05:00:00 12.2 13 Nordeste 20 Nordeste 0 1010.3 -0.8 72
2020-03-18 04:00:00 12.8 14 Nordeste 21 Nordeste 0 1010.4 -0.8 70
2020-03-18 03:00:00 12.8 13 Nordeste 23 Nordeste 0 1010.8 -0.8 72
2020-03-18 02:00:00 12.6 11 Nordeste 18 Nordeste 0 1011.1 -0.5 73
2020-03-18 01:00:00 13.7 10 Nordeste 18 Nordeste 0 1011.2 0.1 70
2020-03-18 00:00:00 13.6 9 Nordeste 15 Nordeste 0 1011.6 0.9 70
2020-03-17 23:00:00 14.2 5 Nordeste 12 Nordeste 0 1011.6 1.8 68
2020-03-17 22:00:00 14.8 4 Sudeste 15 Nordeste 0 1011.1 1.9 65
2020-03-17 21:00:00 16.2 9 Nordeste 24 Norte 0 1010.7 1.9 59
2020-03-17 20:00:00 17.7 14 Nordeste 28 Nordeste 0 1009.8 1.2 53
2020-03-17 19:00:00 19.7 6 Norte 22 Noroeste 0 1009.2 0.3 51
2020-03-17 18:00:00 20.8 12 Norte 30 Norte 0 1008.8 -0.5 49
2020-03-17 17:00:00 21.4 13 Noroeste 25 Norte 0 1008.6 -1.4 48
2020-03-17 16:00:00 20.8 13 Noroeste 28 Oeste 0 1008.9 -1.6 50
2020-03-17 15:00:00 19.6 14 Oeste 27 Oeste 0 1009.3 -1.6 50
2020-03-17 14:00:00 18 17 Noroeste 28 Oeste 0 1010 -0.9 54
2020-03-17 13:00:00 17.1 13 Noroeste 21 Oeste 0 1010.5 -0.3 57
2020-03-17 12:00:00 14.7 14 Noroeste 23 Noroeste 0 1010.9 -0.2 61
2020-03-17 11:00:00 13.3 5 Sudoeste 15 Nordeste 0 1010.9 0.5 61
2020-03-17 10:00:00 11.6 9 Nordeste 20 Nordeste 0 1010.8 0.8 62
2020-03-17 09:00:00 8.3 6 Nordeste 25 Nordeste 0 1011.1 1.7 71
2020-03-17 08:00:00 7.9 12 Nordeste 28 Nordeste 0 1010.4 1.4 70
2020-03-17 07:00:00 8 12 Norte 30 Nordeste 0 1010 0.5 68
2020-03-17 06:00:00 8 8 Norte 26 Nordeste 0 1009.4 -0.3 68
2020-03-17 05:00:00 7.8 12 Nordeste 23 Norte 0 1009 -0.7 69
2020-03-17 04:00:00 8 4 Norte 20 Noroeste 0 1009.5 -0.3 67
2020-03-17 03:00:00 8.1 5 Norte 40 Nordeste 0 1009.7 -0.6 66
2020-03-17 02:00:00 8.3 17 Nordeste 34 Nordeste 0 1009.7 -0.6 68
2020-03-17 01:00:00 8 13 Norte 34 Norte 0 1009.8 -0.3 73
2020-03-17 00:00:00 8.4 13 Norte 32 Noroeste 0 1010.3 0.5 72
2020-03-16 23:00:00 8.3 12 Noroeste 39 Norte 0 1010.3 1 73
2020-03-16 22:00:00 8.5 13 Norte 32 Norte 0 1010.1 1.3 70
2020-03-16 21:00:00 9.3 12 Norte 34 Norte 0 1009.8 1.5 65
2020-03-16 20:00:00 10.4 12 Nordeste 37 Norte 0 1009.3 1.3 66
2020-03-16 19:00:00 11.2 21 Noroeste 41 Norte 0 1008.8 0.7 63
2020-03-16 18:00:00 11.6 21 Norte 46 Norte 0 1008.3 0.1 59
2020-03-16 17:00:00 13.2 17 Noroeste 38 Norte 0 1008 -0.7 56
2020-03-16 16:00:00 12.8 13 Norte 49 Norte 0.2 1008.1 -0.8 58
2020-03-16 15:00:00 13.4 19 Noroeste 42 Norte 0 1008.2 -0.9 57
2020-03-16 14:00:00 12.2 17 Noroeste 49 Norte 0 1008.7 -0.3 61
2020-03-16 13:00:00 11.5 13 Noroeste 37 Norte 0 1008.9 0.2 67
2020-03-16 12:00:00 11.1 17 Noroeste 36 Noroeste 0 1009.1 1.1 69
2020-03-16 11:00:00 9 15 Norte 33 Norte 0 1009 1.7 79
2020-03-16 10:00:00 8.3 6 Noroeste 15 Nordeste 0 1008.7 2 87
2020-03-16 09:00:00 5.2 5 Noroeste 12 Nordeste 0 1008 1.6 94
2020-03-16 08:00:00 4.6 4 Noroeste 7 Oeste 0 1007.3 1.3 93
2020-03-16 07:00:00 5.1 3 Nordeste 9 Norte 0 1006.7 0.9 94
2020-03-16 06:00:00 4.6 3 Norte 6 Norte 0 1006.4 0.6 94
2020-03-16 05:00:00 4.4 5 Nordeste 7 Nordeste 0 1006 0.5 95
2020-03-16 04:00:00 4.7 5 Nordeste 8 Nordeste 0 1005.8 0.6 95
2020-03-16 03:00:00 4.5 6 Nordeste 9 Nordeste 0 1005.8 0.7 94
2020-03-16 02:00:00 4.3 5 Nordeste 10 Nordeste 0 1005.5 0.8 94
2020-03-16 01:00:00 4.6 2 Este 8 Nordeste 0 1005.2 1.1 93
2020-03-16 00:00:00 4.9 4 Nordeste 6 Este 0 1005.1 1.1 92
2020-03-15 23:00:00 4.9 2 Nordeste 7 Nordeste 0 1004.7 1.6 92
2020-03-15 22:00:00 5.4 3 Norte 23 Noroeste 0.4 1004.1 1.2 90
2020-03-15 21:00:00 6.6 16 Noroeste 30 Noroeste 0.4 1004 1.3 86
2020-03-15 20:00:00 7.7 3 Nordeste 17 Oeste 0 1003.1 0.8 81
2020-03-15 19:00:00 9.5 9 Noroeste 18 Oeste 0 1002.9 0.8 70
2020-03-15 18:00:00 8.7 6 Noroeste 39 Oeste 0 1002.7 0.4 75
2020-03-15 17:00:00 9.9 8 Oeste 17 Sudoeste 0.2 1002.3 -0.2 79
2020-03-15 16:00:00 9.1 4 Noroeste 26 Noroeste 0.2 1002.1 -0.1 85
2020-03-15 15:00:00 8.8 11 Noroeste 18 Noroeste 0 1002.3 1.5 85
2020-03-15 14:00:00 8.5 11 Noroeste 21 Noroeste 2.6 1002.5 1.4 92
2020-03-15 13:00:00 8.5 15 Noroeste 46 Noroeste 2.4 1002.2 0.6 89
2020-03-15 12:00:00 12.1 12 Sur 26 Sur 0.6 1000.8 -1.2 82
2020-03-15 11:00:00 12.5 9 Sur 18 Sudeste 0 1001.1 -1.2 78
2020-03-15 10:00:00 9.5 4 Noroeste 8 Nordeste 0 1001.6 -0.9 91
2020-03-15 09:00:00 8.4 2 Noroeste 7 Sur 0 1002 -0.4 94
2020-03-15 08:00:00 7.6 4 Norte 7 Nordeste 0 1002.3 -0.2 94
2020-03-15 07:00:00 7.1 3 Norte 9 Este 0 1002.5 -0.1 95
2020-03-15 06:00:00 7.2 4 Nordeste 10 Nordeste 0 1002.4 -0.3 94
2020-03-15 05:00:00 6.2 5 Sudeste 13 Este 0 1002.5 -0.5 93
2020-03-15 04:00:00 6.5 3 Este 17 Nordeste 0 1002.6 -1 89
2020-03-15 03:00:00 7.1 2 Nordeste 16 Este 0 1002.7 -1.7 89
2020-03-15 02:00:00 7.7 8 Nordeste 12 Nordeste 0 1003 -1.6 89
2020-03-15 01:00:00 8.4 8 Nordeste 13 Nordeste 0 1003.6 -1 89
2020-03-15 00:00:00 8.9 3 Nordeste 9 Nordeste 0 1004.4 -0.4 90
2020-03-14 23:00:00 10 3 Nordeste 5 Nordeste 0 1004.6 -0.3 90
2020-03-14 22:00:00 11 0 Calma 5 Este 0 1004.6 -0.2 88
2020-03-14 21:00:00 11.8 2 Sur 6 Sudoeste 0 1004.8 0 84
2020-03-14 20:00:00 13.2 6 Sudoeste 14 Sudoeste 0 1004.9 -0.2 75
2020-03-14 19:00:00 16.1 7 Sudoeste 19 Sudoeste 0 1004.8 -0.4 64
2020-03-14 18:00:00 17.7 9 Sudoeste 23 Sudoeste 0 1004.8 -0.9 59
2020-03-14 17:00:00 18.5 12 Sudoeste 21 Sudoeste 0 1005.1 -1.4 54
2020-03-14 16:00:00 19.5 10 Sudoeste 23 Noroeste 0 1005.2 -2 51
2020-03-14 15:00:00 18.3 13 Oeste 22 Oeste 0 1005.7 -2.4 53
2020-03-14 14:00:00 17.1 12 Noroeste 22 Oeste 0 1006.5 -2.5 59
2020-03-14 13:00:00 15.7 11 Oeste 22 Noroeste 0 1007.2 -2.1 59
2020-03-14 12:00:00 14.7 3 Noroeste 9 Oeste 0 1008.1 -1 60
2020-03-14 11:00:00 11.6 4 Oeste 17 Nordeste 0 1009 -0.1 68
2020-03-14 10:00:00 9.7 8 Nordeste 14 Nordeste 0 1009.3 0.5 70
2020-03-14 09:00:00 6.4 9 Nordeste 13 Nordeste 0 1009.1 0.5 80
2020-03-14 08:00:00 5.2 5 Norte 12 Norte 0 1009.1 0.7 86
2020-03-14 07:00:00 5.1 6 Noroeste 13 Noroeste 0 1008.8 0.1 89
2020-03-14 06:00:00 5.1 0 Calma 10 Norte 0 1008.6 -0.3 85
2020-03-14 05:00:00 5.3 0 Calma 12 Norte 0 1008.4 -0.6 89
2020-03-14 04:00:00 5.8 3 Sudeste 9 Norte 0 1008.7 -0.7 89
2020-03-14 03:00:00 6.5 0 Calma 11 Nordeste 0 1008.9 -0.7 89
2020-03-14 02:00:00 7.3 5 Norte 15 Noroeste 0 1009 -0.4 88
2020-03-14 01:00:00 7.8 9 Noroeste 18 Noroeste 0 1009.4 0.6 87
2020-03-14 00:00:00 8.1 7 Norte 12 Noroeste 0 1009.6 1.1 86
2020-03-13 23:00:00 9.1 8 Norte 22 Nordeste 0 1009.4 1.8 81
2020-03-13 22:00:00 10.3 9 Norte 25 Noroeste 0 1008.8 1.8 77
2020-03-13 21:00:00 11.2 9 Norte 19 Noroeste 0 1008.5 2 73
2020-03-13 20:00:00 12.8 4 Nordeste 24 Norte 0 1007.6 1 64
2020-03-13 19:00:00 14.8 12 Norte 23 Norte 0 1007 0.2 58
2020-03-13 18:00:00 16.3 8 Norte 26 Norte 0 1006.5 -0.6 55
2020-03-13 17:00:00 16.6 10 Norte 32 Norte 0 1006.6 -1.2 56
2020-03-13 16:00:00 16.7 12 Norte 32 Norte 0 1006.8 -1.7 58
2020-03-13 15:00:00 17 12 Noroeste 25 Noroeste 0 1007.1 -1.3 59
2020-03-13 14:00:00 15.6 12 Norte 33 Nordeste 0 1007.8 -0.5 62
2020-03-13 13:00:00 14.5 15 Norte 31 Nordeste 0 1008.5 0.3 64
2020-03-13 12:00:00 14.4 10 Norte 31 Norte 0 1008.4 0.7 65
2020-03-13 11:00:00 13 15 Norte 31 Norte 0 1008.3 1 68
2020-03-13 10:00:00 11.4 9 Norte 23 Norte 0 1008.2 1.3 72
2020-03-13 09:00:00 9.4 7 Norte 21 Nordeste 0 1007.7 0.9 79
2020-03-13 08:00:00 8.8 6 Norte 18 Nordeste 0 1007.3 0.2 79
2020-03-13 07:00:00 9.2 9 Norte 21 Noroeste 0 1006.9 -0.7 76
2020-03-13 06:00:00 9 4 Norte 20 Norte 0 1006.8 -1.3 76
2020-03-13 05:00:00 9.4 10 Norte 26 Norte 0 1007.1 -1.1 74
2020-03-13 04:00:00 9.1 8 Norte 27 Norte 0 1007.6 -0.8 76
2020-03-13 03:00:00 9 6 Norte 26 Nordeste 0 1008.1 -0.4 75
2020-03-13 02:00:00 9.5 9 Norte 31 Nordeste 0 1008.2 -0.3 74
2020-03-13 01:00:00 9.5 10 Norte 39 Norte 0 1008.4 0.3 74
2020-03-13 00:00:00 9.6 9 Norte 29 Norte 0 1008.5 0.4 75
2020-03-12 23:00:00 9.9 8 Norte 47 Norte 0 1008.5 0.5 74
2020-03-12 22:00:00 10.4 10 Norte 26 Norte 0 1008.1 0.1 74
2020-03-12 21:00:00 10.9 9 Norte 30 Norte 0 1008.1 0.5 74
2020-03-12 20:00:00 10.9 12 Norte 25 Noroeste 0 1008 1.1 76
2020-03-12 19:00:00 12 13 Norte 35 Noroeste 0 1008 1.2 73
2020-03-12 18:00:00 13.7 13 Norte 37 Noroeste 0 1007.6 0.4 69
2020-03-12 17:00:00 15.6 18 Norte 36 Noroeste 0 1006.9 -1 65
2020-03-12 16:00:00 16.5 16 Norte 35 Norte 0 1006.8 -1.6 61
2020-03-12 15:00:00 16.9 15 Noroeste 38 Noroeste 0 1007.2 -1.7 60
2020-03-12 14:00:00 17 19 Noroeste 30 Noroeste 0 1007.9 -1 58
2020-03-12 13:00:00 16.7 16 Noroeste 33 Norte 0 1008.4 -0.4 61
2020-03-12 12:00:00 15.7 14 Norte 32 Norte 0 1008.9 0.4 63
2020-03-12 11:00:00 14.8 12 Norte 26 Norte 0 1008.9 1.1 67
2020-03-12 10:00:00 13.5 5 Noroeste 13 Noroeste 0 1008.8 1.3 77
2020-03-12 09:00:00 10.9 4 Noroeste 18 Norte 0 1008.5 1.1 83
2020-03-12 08:00:00 10.8 7 Nordeste 19 Nordeste 0 1007.8 0.6 82
2020-03-12 07:00:00 10.9 5 Nordeste 11 Norte 0 1007.5 -0.2 83
2020-03-12 06:00:00 10.6 6 Nordeste 12 Nordeste 0 1007.4 -0.9 89
2020-03-12 05:00:00 9.9 3 Norte 12 Noroeste 0 1007.2 -1.1 92
2020-03-12 04:00:00 10.6 3 Noroeste 7 Norte 0 1007.7 -1.1 91
2020-03-12 03:00:00 11.1 3 Nordeste 7 Norte 0 1008.3 -0.6 91
2020-03-12 02:00:00 11.6 4 Nordeste 14 Nordeste 0 1008.3 -0.4 90
2020-03-12 01:00:00 12.8 4 Nordeste 10 Nordeste 0 1008.8 0.1 88
2020-03-12 00:00:00 12.9 4 Nordeste 7 Nordeste 0 1008.9 0.2 91
2020-03-11 23:00:00 13.2 3 Norte 5 Norte 0 1008.7 -0.1 89
2020-03-11 22:00:00 13.4 0 Calma 5 Norte 0 1008.7 0 88
2020-03-11 21:00:00 13.5 3 Sudoeste 10 Sur 0 1008.7 0.1 87
2020-03-11 20:00:00 13.4 5 Sur 13 Sur 0 1008.8 0.4 87
2020-03-11 19:00:00 15.2 6 Sur 19 Sudoeste 0 1008.7 0.3 80
2020-03-11 18:00:00 16.5 9 Sudoeste 22 Sudoeste 0 1008.6 0 75
2020-03-11 17:00:00 16.9 14 Sudoeste 23 Sudoeste 0 1008.4 -0.9 75
2020-03-11 16:00:00 16.5 13 Oeste 21 Sudoeste 0 1008.4 -1.4 77
2020-03-11 15:00:00 17.1 11 Sudoeste 18 Sudoeste 0 1008.6 -1.5 73
2020-03-11 14:00:00 16.3 9 Sudoeste 16 Sudoeste 0 1009.3 -1.1 77
2020-03-11 13:00:00 15.4 7 Sudoeste 13 Sudoeste 0 1009.8 -0.6 80
2020-03-11 12:00:00 13.3 4 Oeste 8 Sudoeste 0 1010.1 -0.2 87
2020-03-11 11:00:00 10.9 3 Sudoeste 7 Nordeste 0 1010.4 0.2 96
2020-03-11 10:00:00 9.7 5 Nordeste 8 Nordeste 0 1010.4 0 97
2020-03-11 09:00:00 8.7 5 Este 14 Nordeste 0 1010.3 -0.2 97
2020-03-11 08:00:00 7.4 8 Nordeste 13 Nordeste 0 1010.2 -0.3 96
2020-03-11 07:00:00 7.9 6 Este 11 Este 0 1010.4 -0.5 96
2020-03-11 06:00:00 8.8 6 Nordeste 9 Nordeste 0 1010.5 -1.1 97
2020-03-11 05:00:00 8.5 7 Nordeste 11 Este 0 1010.5 -1.4 96
2020-03-11 04:00:00 8.6 6 Este 15 Nordeste 0 1010.9 -1.6 95
2020-03-11 03:00:00 8.8 8 Nordeste 15 Nordeste 0 1011.6 -1 95
2020-03-11 02:00:00 9.3 6 Nordeste 11 Este 0 1011.9 -0.7 95
2020-03-11 01:00:00 9.1 4 Nordeste 11 Nordeste 0 1012.5 -0.3 94
2020-03-11 00:00:00 9.9 5 Nordeste 11 Este 0 1012.6 -0.3 93
2020-03-10 23:00:00 10.4 8 Nordeste 11 Nordeste 0 1012.6 -0.2 92
2020-03-10 22:00:00 11 4 Nordeste 5 Este 0 1012.8 0.3 92
2020-03-10 21:00:00 11.4 0 Calma 6 Sur 0 1012.9 0.4 90
2020-03-10 20:00:00 12.1 5 Sudoeste 13 Sudoeste 0 1012.8 0.2 85
2020-03-10 19:00:00 13.9 5 Sudoeste 15 Sudoeste 0 1012.5 -0.4 81
2020-03-10 18:00:00 14 8 Sudoeste 17 Sudoeste 0 1012.5 -0.6 80
2020-03-10 17:00:00 15.2 13 Sudoeste 23 Sudoeste 0 1012.6 -1.1 73
2020-03-10 16:00:00 15.6 10 Sudoeste 19 Sudoeste 0 1012.9 -1.3 74
2020-03-10 15:00:00 15 10 Sudoeste 21 Sudoeste 0 1013.1 -1.1 75
2020-03-10 14:00:00 15.5 9 Sudoeste 18 Sudoeste 0 1013.7 -0.4 70
2020-03-10 13:00:00 14.5 10 Sudoeste 17 Sudoeste 0 1014.2 0.2 73
2020-03-10 12:00:00 13.7 8 Sudoeste 15 Oeste 0 1014.2 0.3 74
2020-03-10 11:00:00 11.4 5 Oeste 10 Noroeste 0 1014.1 0.4 82
2020-03-10 10:00:00 8.5 3 Nordeste 12 Norte 0 1014 0.4 90
2020-03-10 09:00:00 6.5 2 Oeste 14 Nordeste 0 1013.9 0.2 94
2020-03-10 08:00:00 5.9 11 Nordeste 16 Nordeste 0 1013.7 0.1 94
2020-03-10 07:00:00 6.5 3 Nordeste 10 Este 0 1013.6 -0.1 92
2020-03-10 06:00:00 6.3 3 Este 17 Este 0 1013.7 -0.8 92
2020-03-10 05:00:00 6.6 13 Nordeste 19 Nordeste 0 1013.6 -1.3 93
2020-03-10 04:00:00 7 5 Este 18 Nordeste 0 1013.7 -1.6 92
2020-03-10 03:00:00 7.1 8 Nordeste 13 Nordeste 0 1014.5 -0.9 92
2020-03-10 02:00:00 7.6 9 Nordeste 15 Nordeste 0 1014.9 -1.1 92
2020-03-10 01:00:00 8 7 Nordeste 11 Nordeste 0 1015.3 -0.1 91
2020-03-10 00:00:00 8.3 2 Sur 13 Este 0 1015.4 -0.2 89
2020-03-09 23:00:00 9.2 8 Nordeste 12 Nordeste 0 1016 0.6 88
2020-03-09 22:00:00 9.9 5 Sudeste 7 Sudeste 0 1015.4 0.3 85
2020-03-09 21:00:00 10.6 3 Sudeste 7 Sudeste 0 1015.6 0.7 82
2020-03-09 20:00:00 11.6 3 Sur 14 Sudoeste 0 1015.4 0.5 77
2020-03-09 19:00:00 13.5 8 Sudoeste 17 Sudoeste 0 1015.1 -0.4 70
2020-03-09 18:00:00 14.5 9 Sudoeste 19 Sudoeste 0 1014.9 -1.1 66
2020-03-09 17:00:00 15.3 11 Sudoeste 21 Sudoeste 0 1014.9 -1.9 63
2020-03-09 16:00:00 15.3 9 Sudoeste 21 Oeste 0 1015.5 -2 67
2020-03-09 15:00:00 14.7 10 Oeste 17 Oeste 0 1016 -1.6 67
2020-03-09 14:00:00 13.7 7 Sudoeste 16 Sudoeste 0 1016.8 -1 70
2020-03-09 13:00:00 13.7 6 Oeste 14 Sudoeste 0 1017.5 -0.1 73
2020-03-09 12:00:00 12.2 5 Noroeste 6 Oeste 0 1017.6 0.7 82
2020-03-09 11:00:00 10 6 Noroeste 12 Nordeste 0 1017.8 2.1 89
2020-03-09 10:00:00 7.9 6 Este 19 Nordeste 0 1017.6 1.9 94
2020-03-09 09:00:00 6 12 Nordeste 18 Nordeste 0 1016.9 1.8 94
2020-03-09 08:00:00 5.9 9 Nordeste 16 Este 0 1015.7 0.6 94
2020-03-09 07:00:00 6.5 14 Este 19 Este 0 1015.7 0 95
2020-03-09 06:00:00 6.8 8 Nordeste 13 Nordeste 0 1015.1 -0.7 95
2020-03-09 05:00:00 7.6 5 Nordeste 12 Este 0 1015.1 -0.7 95
2020-03-09 04:00:00 8.1 8 Este 13 Nordeste 0 1015.7 -0.2 95
2020-03-09 03:00:00 8.5 4 Nordeste 11 Este 0 1015.8 -0.2 94
2020-03-09 02:00:00 9.1 3 Este 5 Norte 0 1015.8 0.3 94
2020-03-09 01:00:00 9.5 5 Este 9 Este 0 1015.9 0.7 93
2020-03-09 00:00:00 10 4 Nordeste 5 Nordeste 0 1016 1.3 92